Time;durP1;ratioP1;P1;durP2;ratioP2;P2;SDS_P1;SDS_P2;PMS_P1;PMS_P2;Temp;Humidity;BMP_temperature;BMP_pressure;BME280_temperature;BME280_humidity;BME280_pressure;Samples;Min_cycle;Max_cycle;Signal;HPM_P1;HPM_P2
2022/08/26 00:00:00;;;;;;;6.30;5.70;;;;;;;19.21;95.98;97845.28;5105722;28;20253;-69
2022/08/26 00:02:26;;;;;;;6.20;5.60;;;;;;;19.19;96.18;97849.94;5106060;28;20234;-69
2022/08/26 00:04:53;;;;;;;6.10;5.60;;;;;;;19.20;96.37;97834.72;5109494;28;20560;-69
2022/08/26 00:07:20;;;;;;;6.63;5.50;;;;;;;19.21;96.53;97837.25;5107939;28;20260;-69
2022/08/26 00:09:47;;;;;;;6.40;5.80;;;;;;;19.22;96.51;97830.91;5105540;28;20226;-70
2022/08/26 00:12:14;;;;;;;6.63;5.93;;;;;;;19.27;96.25;97833.91;5107241;28;20276;-69
2022/08/26 00:14:40;;;;;;;6.70;6.07;;;;;;;19.23;96.72;97824.53;5108515;28;20226;-69
2022/08/26 00:17:09;;;;;;;6.77;6.07;;;;;;;19.21;97.31;97833.75;5107877;28;20594;-69
2022/08/26 00:19:36;;;;;;;6.37;5.43;;;;;;;19.23;97.36;97826.38;5105357;28;20264;-69
2022/08/26 00:22:02;;;;;;;6.70;6.10;;;;;;;19.26;97.38;97829.56;5106809;28;20218;-69
2022/08/26 00:24:30;;;;;;;7.63;6.17;;;;;;;19.30;96.75;97824.69;5109125;28;20499;-69
2022/08/26 00:26:57;;;;;;;6.87;6.03;;;;;;;19.31;96.78;97827.22;5106055;28;20270;-70
2022/08/26 00:29:24;;;;;;;6.50;5.90;;;;;;;19.31;96.73;97829.03;5105353;28;20275;-70
2022/08/26 00:31:50;;;;;;;7.30;6.47;;;;;;;19.27;96.82;97825.88;5106669;28;20582;-70
2022/08/26 00:34:18;;;;;;;6.77;6.17;;;;;;;19.26;96.57;97834.91;5109032;28;20226;-69
2022/08/26 00:36:45;;;;;;;6.77;6.17;;;;;;;19.24;96.69;97826.22;5107849;28;20246;-69
2022/08/26 00:39:12;;;;;;;6.57;5.97;;;;;;;19.20;97.16;97830.22;5105276;28;20284;-70
2022/08/26 00:41:40;;;;;;;7.07;6.37;;;;;;;19.13;97.80;97834.53;5106316;28;20222;-69
2022/08/26 00:44:07;;;;;;;7.17;6.50;;;;;;;19.07;98.61;97832.53;5109032;28;20573;-70
2022/08/26 00:46:39;;;;;;;6.83;6.23;;;;;;;19.00;99.30;97831.53;5107992;28;20254;-70
2022/08/26 00:49:11;;;;;;;7.70;7.00;;;;;;;18.94;100.00;97831.31;5105156;28;20305;-70
2022/08/26 00:51:44;;;;;;;7.40;6.70;;;;;;;18.84;100.00;97834.16;5107379;28;20281;-69
2022/08/26 00:54:11;;;;;;;7.37;6.67;;;;;;;18.79;100.00;97836.50;5107100;28;20526;-69
2022/08/26 00:56:43;;;;;;;7.00;6.20;;;;;;;18.74;100.00;97838.84;5105799;28;20312;-69
2022/08/26 00:59:13;;;;;;;7.67;6.73;;;;;;;18.73;100.00;97842.53;5105113;28;20231;-70
2022/08/26 01:01:43;;;;;;;8.13;6.40;;;;;;;18.75;100.00;97845.88;5092006;28;20258;-69
2022/08/26 01:04:13;;;;;;;7.57;6.87;;;;;;;18.76;100.00;97839.50;5108728;28;20477;-69
2022/08/26 01:06:42;;;;;;;7.10;6.40;;;;;;;18.78;100.00;97842.84;5105031;28;20254;-69
2022/08/26 01:09:09;;;;;;;7.80;7.00;;;;;;;18.82;100.00;97840.69;5105782;28;20227;-70
2022/08/26 01:11:36;;;;;;;7.83;6.37;;;;;;;18.87;100.00;97833.84;5108665;28;20271;-70
2022/08/26 01:14:06;;;;;;;8.53;6.83;;;;;;;18.89;100.00;97837.19;5108305;28;20278;-69
2022/08/26 01:16:33;;;;;;;8.23;6.47;;;;;;;18.92;100.00;97841.38;5104904;28;20243;-69
2022/08/26 01:19:17;;;;;;;8.53;7.03;;;;;;;18.89;100.00;97847.91;5103914;28;20454;-69
2022/08/26 01:21:52;;;;;;;8.63;7.03;;;;;;;18.86;100.00;97842.03;5103761;28;20226;-69
2022/08/26 01:24:20;;;;;;;6.93;6.30;;;;;;;18.82;100.00;97836.16;5097590;28;20579;-70
2022/08/26 01:26:48;;;;;;;7.40;6.50;;;;;;;18.81;100.00;97834.50;5108867;28;20219;-70
2022/08/26 01:29:18;;;;;;;7.60;6.80;;;;;;;18.85;100.00;97833.19;5112410;28;20278;-70
2022/08/26 01:31:47;;;;;;;7.33;6.63;;;;;;;18.90;100.00;97833.50;5111759;28;20282;-69
2022/08/26 01:34:18;;;;;;;8.23;7.07;;;;;;;18.96;100.00;97838.19;5108364;28;20268;-70
2022/08/26 01:36:45;;;;;;;7.57;6.87;;;;;;;19.01;100.00;97835.88;5109620;28;20285;-70
2022/08/26 01:39:12;;;;;;;9.10;7.03;;;;;;;19.00;100.00;97839.56;5112114;28;20261;-70
2022/08/26 01:41:41;;;;;;;7.27;6.57;;;;;;;18.99;100.00;97837.88;5110998;28;20451;-70
2022/08/26 01:44:13;;;;;;;7.03;6.37;;;;;;;18.98;100.00;97830.00;5108183;28;20231;-70
2022/08/26 01:46:40;;;;;;;6.87;6.27;;;;;;;18.96;100.00;97832.03;5108507;28;20246;-69
2022/08/26 01:49:08;;;;;;;7.27;6.53;;;;;;;18.95;100.00;97831.16;5111954;28;20275;-70
2022/08/26 01:51:38;;;;;;;7.30;6.50;;;;;;;18.93;100.00;97827.81;5109905;28;20635;-70
2022/08/26 01:54:07;;;;;;;7.27;6.57;;;;;;;18.90;100.00;97833.50;5108070;28;20283;-70
2022/08/26 01:56:34;;;;;;;6.83;6.23;;;;;;;18.89;100.00;97836.38;5110450;28;20311;-70
2022/08/26 01:59:06;;;;;;;6.77;6.13;;;;;;;18.88;100.00;97840.88;5111729;28;20283;-70
2022/08/26 02:01:35;;;;;;;7.50;6.80;;;;;;;18.85;100.00;97833.19;5108725;28;20227;-70
2022/08/26 02:04:10;;;;;;;7.07;6.37;;;;;;;18.89;100.00;97841.72;5107883;28;20219;-69
2022/08/26 02:06:37;;;;;;;8.00;7.20;;;;;;;18.89;100.00;97831.81;5095680;28;20225;-70
2022/08/26 02:09:05;;;;;;;7.03;6.33;;;;;;;18.92;100.00;97836.03;5111452;28;20225;-71
2022/08/26 02:11:33;;;;;;;7.53;6.80;;;;;;;18.89;100.00;97837.19;5098321;28;20284;-70
2022/08/26 02:14:03;;;;;;;6.83;6.20;;;;;;;18.87;100.00;97839.19;5107989;28;20579;-69
2022/08/26 02:16:36;;;;;;;6.50;5.77;;;;;;;18.85;100.00;97837.69;5111242;28;20249;-70
2022/08/26 02:19:04;;;;;;;6.67;6.07;;;;;;;18.84;100.00;97834.16;5109958;28;20499;-69
2022/08/26 02:21:32;;;;;;;7.33;6.63;;;;;;;18.83;100.00;97832.47;5107358;28;20226;-69
2022/08/26 02:24:08;;;;;;;7.23;6.53;;;;;;;18.84;100.00;97838.69;5108960;28;20659;-69
2022/08/26 02:26:35;;;;;;;7.67;6.67;;;;;;;18.85;100.00;97841.22;5111183;28;20225;-70
2022/08/26 02:29:06;;;;;;;7.23;6.53;;;;;;;18.83;100.00;97845.06;5108693;28;20635;-70
2022/08/26 02:31:34;;;;;;;7.03;6.37;;;;;;;18.79;100.00;97847.22;5107292;28;20288;-70
2022/08/26 02:34:08;;;;;;;8.47;7.03;;;;;;;18.73;100.00;97842.53;5110601;28;20264;-70
2022/08/26 02:36:35;;;;;;;8.10;6.87;;;;;;;18.73;100.00;97844.34;5109291;28;20329;-70
2022/08/26 02:39:01;;;;;;;7.77;6.67;;;;;;;18.69;100.00;97833.13;5098727;28;20227;-70
2022/08/26 02:41:28;;;;;;;7.73;6.93;;;;;;;18.68;100.00;97838.63;5107114;28;20222;-70
2022/08/26 02:43:55;;;;;;;8.00;7.30;;;;;;;18.69;100.00;97835.81;5093912;28;20286;-70
2022/08/26 02:46:22;;;;;;;6.93;6.23;;;;;;;18.72;100.00;97827.44;5110745;28;20628;-70
2022/08/26 02:48:50;;;;;;;8.30;7.23;;;;;;;18.73;100.00;97829.13;5107166;28;20309;-70
2022/08/26 02:51:17;;;;;;;7.63;6.93;;;;;;;18.73;100.00;97830.97;5106625;28;20495;-70
2022/08/26 02:53:44;;;;;;;7.63;6.83;;;;;;;18.71;100.00;97833.78;5110476;28;20278;-70
2022/08/26 02:56:11;;;;;;;7.47;6.77;;;;;;;18.65;100.00;97829.09;5110469;28;20277;-70
2022/08/26 02:58:37;;;;;;;9.57;7.23;;;;;;;18.63;100.00;97836.47;5107170;28;20280;-70
2022/08/26 03:01:04;;;;;;;7.93;7.13;;;;;;;18.52;100.00;97834.06;5106671;28;20258;-70
2022/08/26 03:03:31;;;;;;;9.13;7.67;;;;;;;18.43;100.00;97824.38;5108414;28;20226;-69
2022/08/26 03:06:00;;;;;;;8.47;7.40;;;;;;;18.36;100.00;97822.50;5110429;28;20565;-69
2022/08/26 03:08:27;;;;;;;7.97;7.13;;;;;;;18.31;100.00;97824.81;5107153;28;20233;-69
2022/08/26 03:10:53;;;;;;;7.97;7.23;;;;;;;18.31;100.00;97830.16;5106498;28;20231;-69
2022/08/26 03:13:20;;;;;;;7.87;7.00;;;;;;;18.27;100.00;97824.25;5109796;28;20226;-70
2022/08/26 03:15:47;;;;;;;9.03;8.13;;;;;;;18.16;100.00;97816.50;5110187;28;20258;-70
2022/08/26 03:18:13;;;;;;;8.80;7.90;;;;;;;18.06;100.00;97820.31;5107210;28;20290;-70
2022/08/26 03:20:40;;;;;;;9.03;8.13;;;;;;;17.95;100.00;97818.75;5098945;28;20620;-69
2022/08/26 03:23:08;;;;;;;8.37;7.53;;;;;;;17.84;100.00;97811.00;5108985;28;20265;-70
2022/08/26 03:25:35;;;;;;;9.10;8.20;;;;;;;17.78;100.00;97811.63;5109970;28;20303;-70
2022/08/26 03:28:02;;;;;;;9.10;8.20;;;;;;;17.71;100.00;97810.59;5107436;28;20576;-70
2022/08/26 03:30:40;;;;;;;9.63;7.97;;;;;;;17.70;100.00;97816.09;5104398;28;20231;-69
2022/08/26 03:33:09;;;;;;;10.57;8.70;;;;;;;17.65;100.00;97813.91;5093626;28;20312;-70
2022/08/26 03:35:36;;;;;;;9.00;8.10;;;;;;;17.64;100.00;97814.06;5109827;28;20331;-70
2022/08/26 03:38:03;;;;;;;10.37;8.43;;;;;;;17.62;100.00;97811.53;5105998;28;20238;-70
2022/08/26 03:40:32;;;;;;;9.83;8.60;;;;;;;17.61;100.00;97825.88;5106124;28;20313;-70
2022/08/26 03:42:59;;;;;;;9.63;8.73;;;;;;;17.56;100.00;97814.81;5109755;28;20313;-70
2022/08/26 03:45:26;;;;;;;9.30;8.40;;;;;;;17.55;100.00;97823.84;5109532;28;20261;-70
2022/08/26 03:47:53;;;;;;;9.70;8.70;;;;;;;17.56;100.00;97822.84;5105074;28;20697;-70
2022/08/26 03:50:22;;;;;;;9.73;8.73;;;;;;;17.55;100.00;97815.81;5105661;28;20508;-70
2022/08/26 03:52:49;;;;;;;11.47;8.83;;;;;;;17.55;100.00;97815.00;5109523;28;20254;-70
2022/08/26 03:55:16;;;;;;;11.00;8.57;;;;;;;17.51;100.00;97814.47;5107718;28;20258;-70
2022/08/26 03:57:44;;;;;;;9.97;8.97;;;;;;;17.48;100.00;97819.28;5098101;28;20591;-70
2022/08/26 04:00:14;;;;;;;9.70;8.33;;;;;;;17.39;100.00;97818.41;5106035;28;20337;-70
2022/08/26 04:02:42;;;;;;;11.17;9.27;;;;;;;17.36;100.00;97821.34;5109429;28;20679;-70
2022/08/26 04:05:10;;;;;;;10.00;8.90;;;;;;;17.34;100.00;97825.16;5108990;28;20308;-70
2022/08/26 04:07:36;;;;;;;9.53;8.50;;;;;;;17.32;100.00;97819.97;5105737;28;20219;-70
2022/08/26 04:10:04;;;;;;;11.83;9.13;;;;;;;17.29;100.00;97825.63;5106151;28;20254;-70
2022/08/26 04:12:31;;;;;;;9.60;8.60;;;;;;;17.34;100.00;97817.13;5109335;28;20222;-70
2022/08/26 04:14:59;;;;;;;9.07;8.17;;;;;;;17.35;100.00;97822.34;5109103;28;20225;-71
2022/08/26 04:17:25;;;;;;;9.10;8.20;;;;;;;17.35;100.00;97822.34;5105385;28;20247;-70
2022/08/26 04:19:53;;;;;;;10.33;9.23;;;;;;;17.35;100.00;97819.66;5105773;28;20254;-70
2022/08/26 04:22:20;;;;;;;9.73;8.43;;;;;;;17.39;100.00;97826.41;5107468;28;20611;-70
2022/08/26 04:24:46;;;;;;;10.03;8.00;;;;;;;17.39;100.00;97820.22;5109081;28;20230;-70
2022/08/26 04:27:13;;;;;;;10.13;8.77;;;;;;;17.42;100.00;97818.06;5105355;28;20279;-69
2022/08/26 04:29:40;;;;;;;10.57;9.37;;;;;;;17.42;100.00;97815.41;5105301;28;20230;-70
2022/08/26 04:32:08;;;;;;;11.53;9.53;;;;;;;17.42;100.00;97820.75;5109053;28;20248;-70
2022/08/26 04:34:36;;;;;;;10.63;9.53;;;;;;;17.42;100.00;97823.41;5109145;28;20225;-70
2022/08/26 04:37:03;;;;;;;12.53;10.10;;;;;;;17.43;100.00;97816.25;5097557;28;20242;-70
2022/08/26 04:39:31;;;;;;;10.43;9.33;;;;;;;17.44;100.00;97813.41;5105283;28;20223;-70
2022/08/26 04:41:58;;;;;;;12.37;9.53;;;;;;;17.46;100.00;97810.59;5109004;28;20222;-71
2022/08/26 04:44:26;;;;;;;10.70;9.60;;;;;;;17.49;100.00;97813.78;5109059;28;20233;-69
2022/08/26 04:46:53;;;;;;;12.07;10.23;;;;;;;17.58;100.00;97812.84;5096557;28;20533;-70
2022/08/26 04:49:21;;;;;;;10.77;9.70;;;;;;;17.65;100.00;97807.69;5105381;28;20218;-70
2022/08/26 04:51:48;;;;;;;12.30;10.07;;;;;;;17.70;100.00;97816.09;5108765;28;20261;-71
2022/08/26 04:54:16;;;;;;;10.37;9.03;;;;;;;17.75;100.00;97814.63;5108904;28;20535;-69
2022/08/26 04:56:46;;;;;;;10.83;9.43;;;;;;;17.86;100.00;97821.56;5097224;28;20246;-69
2022/08/26 04:59:16;;;;;;;10.87;9.07;;;;;;;17.96;100.00;97820.44;5105871;28;20533;-69
2022/08/26 05:01:43;;;;;;;10.03;9.00;;;;;;;18.04;100.00;97817.78;5112977;28;20556;-70
2022/08/26 05:04:10;;;;;;;9.87;8.83;;;;;;;18.13;100.00;97819.53;5112244;28;20297;-69
2022/08/26 05:06:38;;;;;;;9.97;8.67;;;;;;;18.27;100.00;97820.72;5108915;28;20274;-69
2022/08/26 05:09:05;;;;;;;10.97;8.97;;;;;;;18.36;100.00;97822.50;5109816;28;20438;-69
2022/08/26 05:11:32;;;;;;;9.53;8.63;;;;;;;18.45;100.00;97819.66;5112789;28;20222;-70
2022/08/26 05:13:59;;;;;;;9.77;8.60;;;;;;;18.58;100.00;97822.72;5110373;28;20308;-72
2022/08/26 05:16:26;;;;;;;10.53;8.40;;;;;;;18.69;100.00;97822.41;5108861;28;20345;-72
2022/08/26 05:18:53;;;;;;;9.47;8.47;;;;;;;18.83;100.00;97829.00;5109332;28;20223;-72
2022/08/26 05:21:23;;;;;;;9.70;8.70;;;;;;;18.95;100.00;97825.81;5105604;28;20226;-71
2022/08/26 05:23:53;;;;;;;9.80;8.57;;;;;;;19.07;100.00;97832.53;5111949;28;20222;-71
2022/08/26 05:26:21;;;;;;;9.60;8.70;;;;;;;19.19;100.00;97828.53;5108802;28;20258;-72
2022/08/26 05:28:48;;;;;;;9.77;8.87;;;;;;;19.35;100.00;97833.06;5109928;28;20655;-71
2022/08/26 05:31:16;;;;;;;9.77;7.63;;;;;;;19.45;100.00;97829.22;5112381;28;20233;-71
2022/08/26 05:33:43;;;;;;;9.67;8.73;;;;;;;19.57;100.00;97835.91;5111314;28;20253;-71
2022/08/26 05:36:13;;;;;;;10.37;8.63;;;;;;;19.68;100.00;97834.75;5108556;28;20262;-70
2022/08/26 05:38:41;;;;;;;8.97;8.07;;;;;;;19.80;100.00;97844.94;5108939;28;20247;-71
2022/08/26 05:41:16;;;;;;;11.07;8.27;;;;;;;19.91;100.00;97836.53;5111754;28;20222;-70
2022/08/26 05:43:43;;;;;;;8.77;7.47;;;;;;;19.97;100.00;97841.22;5109703;28;20278;-71
2022/08/26 05:46:10;;;;;;;11.93;8.60;;;;;;;20.02;99.52;97844.25;5108288;28;20262;-71
2022/08/26 05:48:38;;;;;;;10.93;8.13;;;;;;;20.10;98.27;97846.06;5110795;28;20276;-71
2022/08/26 05:51:07;;;;;;;8.50;7.70;;;;;;;20.17;98.08;97849.78;5111914;28;20226;-71
2022/08/26 05:53:35;;;;;;;8.17;7.37;;;;;;;20.21;97.15;97857.28;5109444;28;20298;-71
2022/08/26 05:56:04;;;;;;;8.83;7.93;;;;;;;20.27;96.63;97847.69;5107988;28;20276;-71
2022/08/26 05:58:34;;;;;;;9.03;7.80;;;;;;;20.31;96.27;97849.84;5111058;28;20516;-71
2022/08/26 06:01:03;;;;;;;8.83;7.57;;;;;;;20.42;95.66;97854.03;5105231;28;20715;-71
2022/08/26 06:03:32;;;;;;;9.70;7.33;;;;;;;20.53;94.61;97854.47;5107849;28;20631;-71
2022/08/26 06:06:02;;;;;;;8.53;7.73;;;;;;;20.72;93.41;97848.69;5106144;28;20272;-69
2022/08/26 06:08:29;;;;;;;8.43;7.63;;;;;;;21.06;91.37;97851.03;5095365;28;20291;-69
2022/08/26 06:11:00;;;;;;;8.57;7.60;;;;;;;21.25;90.22;97856.78;5110685;28;20283;-70
2022/08/26 06:13:28;;;;;;;8.37;7.40;;;;;;;21.23;89.93;97861.50;5100273;28;20258;-70
2022/08/26 06:15:58;;;;;;;8.00;7.20;;;;;;;21.16;89.73;97860.53;5108206;28;20317;-70
2022/08/26 06:18:31;;;;;;;7.60;6.83;;;;;;;21.08;90.36;97865.97;5111313;28;20302;-71
2022/08/26 06:20:58;;;;;;;7.73;6.93;;;;;;;21.01;90.99;97862.31;5109826;28;20225;-69
2022/08/26 06:26:12;;;;;;;8.07;7.27;;;;;;;20.91;91.07;97869.75;5095122;28;20216;-71
2022/08/26 06:28:39;;;;;;;8.20;7.27;;;;;;;20.85;90.95;97870.44;5111204;28;20563;-72
2022/08/26 06:31:07;;;;;;;7.90;7.03;;;;;;;20.87;90.77;97876.47;5097680;28;20265;-69
2022/08/26 06:33:34;;;;;;;9.37;7.37;;;;;;;20.90;90.88;97873.47;5107433;28;20227;-69
2022/08/26 06:36:01;;;;;;;8.30;7.20;;;;;;;20.95;90.92;97876.47;5111078;28;20222;-69
2022/08/26 06:38:28;;;;;;;10.13;7.30;;;;;;;20.98;90.43;97876.09;5110986;28;20599;-71
2022/08/26 06:40:55;;;;;;;8.00;7.23;;;;;;;21.03;89.69;97879.09;5107297;28;20230;-69
2022/08/26 06:43:26;;;;;;;7.63;6.93;;;;;;;21.07;89.55;97869.69;5107128;28;20305;-69
2022/08/26 06:46:01;;;;;;;8.17;7.40;;;;;;;21.12;88.59;97878.06;5094950;28;20639;-69
2022/08/26 06:48:29;;;;;;;7.83;7.03;;;;;;;21.16;88.34;97879.34;5109792;28;20520;-70
2022/08/26 06:51:05;;;;;;;8.07;7.27;;;;;;;21.22;88.07;97877.81;5107086;28;20262;-70
2022/08/26 06:53:31;;;;;;;9.03;7.33;;;;;;;21.29;88.01;97882.31;5109584;28;20245;-69
2022/08/26 06:55:58;;;;;;;8.40;7.53;;;;;;;21.34;87.08;97877.22;5108968;28;20287;-69
2022/08/26 06:58:25;;;;;;;8.77;7.87;;;;;;;21.39;87.37;97882.06;5106039;28;20714;-71
2022/08/26 07:00:51;;;;;;;7.87;7.07;;;;;;;21.43;87.56;97884.22;5106710;28;20223;-69
2022/08/26 07:03:20;;;;;;;9.80;7.57;;;;;;;21.46;86.84;97875.78;5108948;28;20227;-69
2022/08/26 07:05:49;;;;;;;8.07;7.03;;;;;;;21.49;86.52;97875.44;5110513;28;20284;-69
2022/08/26 07:08:15;;;;;;;9.67;7.43;;;;;;;21.53;86.29;97879.41;5108133;28;20221;-71
2022/08/26 07:10:43;;;;;;;8.27;7.40;;;;;;;21.55;85.84;97879.25;5106703;28;20230;-70
2022/08/26 07:13:11;;;;;;;7.50;6.70;;;;;;;21.56;85.69;97871.00;5108876;28;20682;-71
2022/08/26 07:15:40;;;;;;;8.27;7.27;;;;;;;21.60;85.65;97876.84;5106620;28;20222;-70
2022/08/26 07:18:07;;;;;;;8.53;7.13;;;;;;;21.64;85.52;97884.38;5106275;28;20706;-69
2022/08/26 07:20:38;;;;;;;7.73;6.93;;;;;;;21.68;85.41;97891.09;5099727;28;20219;-70
2022/08/26 07:23:07;;;;;;;7.77;6.57;;;;;;;21.76;85.45;97882.13;5107460;28;20261;-69
2022/08/26 07:25:34;;;;;;;8.03;7.20;;;;;;;21.86;84.36;97888.94;5110105;28;20226;-70
2022/08/26 07:28:00;;;;;;;9.90;7.73;;;;;;;21.98;83.56;97892.84;5107200;28;20290;-70
2022/08/26 07:30:27;;;;;;;9.60;7.07;;;;;;;22.11;82.82;97889.50;5106120;28;20258;-70
2022/08/26 07:32:56;;;;;;;8.40;7.60;;;;;;;22.24;82.47;97882.47;5109043;28;20222;-70
2022/08/26 07:35:23;;;;;;;9.03;7.43;;;;;;;22.41;81.31;97889.38;5109802;28;20234;-70
2022/08/26 07:37:50;;;;;;;7.83;7.10;;;;;;;22.57;80.30;97883.84;5106912;28;20708;-70
2022/08/26 07:40:18;;;;;;;8.67;7.27;;;;;;;22.68;80.24;97886.03;5105965;28;20226;-70
2022/08/26 07:42:45;;;;;;;8.97;7.50;;;;;;;22.79;79.53;97899.03;5109054;28;20699;-70
2022/08/26 07:45:11;;;;;;;7.37;6.60;;;;;;;22.90;78.58;97890.47;5109736;28;20581;-71
2022/08/26 07:47:38;;;;;;;8.27;7.37;;;;;;;23.03;78.69;97895.22;5106986;28;20257;-70
2022/08/26 07:50:05;;;;;;;7.47;6.73;;;;;;;23.14;78.27;97892.84;5103985;28;20258;-71
2022/08/26 07:52:32;;;;;;;7.70;6.90;;;;;;;23.26;77.88;97896.75;5108564;28;20250;-70
2022/08/26 07:55:01;;;;;;;7.67;6.90;;;;;;;23.33;76.77;97896.81;5109516;28;20225;-70
2022/08/26 07:57:30;;;;;;;7.93;6.33;;;;;;;23.39;76.37;97896.88;5106903;28;20274;-70
2022/08/26 07:59:57;;;;;;;7.13;6.43;;;;;;;23.47;74.79;97898.63;5105761;28;20288;-70
2022/08/26 08:02:25;;;;;;;8.10;6.13;;;;;;;23.55;74.61;97899.34;5108482;28;20229;-72
2022/08/26 08:04:52;;;;;;;7.27;6.50;;;;;;;23.61;74.68;97901.28;5109287;28;20571;-70
2022/08/26 08:07:19;;;;;;;9.00;6.90;;;;;;;23.65;74.56;97905.25;5106675;28;20275;-72
2022/08/26 08:09:48;;;;;;;7.03;6.33;;;;;;;23.70;74.55;97897.41;5105578;28;20226;-72
2022/08/26 08:12:14;;;;;;;7.00;6.33;;;;;;;23.71;74.54;97901.78;5108463;28;20222;-70
2022/08/26 08:14:44;;;;;;;6.80;6.10;;;;;;;23.72;73.76;97897.22;5108388;28;20257;-72
2022/08/26 08:17:10;;;;;;;6.57;5.90;;;;;;;23.72;73.87;97898.03;5105806;28;20230;-70
2022/08/26 08:19:37;;;;;;;6.73;6.13;;;;;;;23.72;74.00;97892.63;5105189;28;20348;-70
2022/08/26 08:22:04;;;;;;;6.90;5.70;;;;;;;23.73;74.36;97902.44;5108275;28;20257;-70
2022/08/26 08:24:32;;;;;;;6.63;6.03;;;;;;;23.74;73.67;97896.00;5109075;28;20305;-71
2022/08/26 08:26:59;;;;;;;7.20;6.47;;;;;;;23.73;73.58;97902.44;5106435;28;20304;-71
2022/08/26 08:29:26;;;;;;;7.43;6.13;;;;;;;23.74;74.01;97901.41;5105247;28;20616;-71
2022/08/26 08:31:55;;;;;;;6.67;6.07;;;;;;;23.77;73.76;97906.38;5104583;28;20556;-70
2022/08/26 08:34:22;;;;;;;8.00;6.23;;;;;;;23.79;73.43;97896.25;5109721;28;20503;-71
2022/08/26 08:36:49;;;;;;;6.60;6.00;;;;;;;23.85;73.04;97898.19;5110675;28;20271;-70
2022/08/26 08:39:16;;;;;;;7.23;6.53;;;;;;;23.91;71.82;97892.03;5109501;28;20325;-71
2022/08/26 08:41:59;;;;;;;6.80;6.10;;;;;;;23.96;71.46;97889.56;5110386;28;20276;-70
2022/08/26 08:44:26;;;;;;;6.70;6.10;;;;;;;24.06;70.87;97884.66;5112803;28;20262;-71
2022/08/26 08:46:59;;;;;;;9.13;6.17;;;;;;;24.12;70.78;97888.44;5109353;28;20272;-71
2022/08/26 08:49:26;;;;;;;6.97;6.27;;;;;;;24.26;70.42;97882.94;5110827;28;20222;-72
2022/08/26 08:51:58;;;;;;;6.90;6.20;;;;;;;24.42;70.68;97884.50;5112941;28;20296;-72
2022/08/26 08:54:27;;;;;;;6.70;6.00;;;;;;;24.57;68.61;97880.66;5111198;28;20257;-71
2022/08/26 08:57:02;;;;;;;6.30;5.67;;;;;;;24.74;67.61;97876.59;5109316;28;20233;-71
2022/08/26 08:59:33;;;;;;;6.83;5.73;;;;;;;24.85;65.76;97876.03;5112325;28;20245;-71
2022/08/26 09:02:09;;;;;;;7.23;5.50;;;;;;;25.01;64.24;97874.84;5112903;28;20309;-72
2022/08/26 09:04:57;;;;;;;7.67;5.50;;;;;;;25.23;62.81;97879.09;5102279;28;20262;-71
2022/08/26 09:07:27;;;;;;;6.07;5.47;;;;;;;25.34;62.64;97876.66;5094250;28;20258;-70
2022/08/26 09:09:58;;;;;;;6.47;5.87;;;;;;;25.52;61.95;97876.91;5112861;28;20522;-71
2022/08/26 09:12:29;;;;;;;5.60;5.10;;;;;;;25.71;61.32;97877.97;5101500;28;20218;-71
2022/08/26 09:15:01;;;;;;;5.87;5.37;;;;;;;25.89;60.74;97870.91;5109804;28;20227;-71
2022/08/26 09:17:42;;;;;;;4.90;4.50;;;;;;;26.10;59.96;97872.59;5112675;28;20252;-71
2022/08/26 09:20:17;;;;;;;8.07;4.77;;;;;;;26.17;58.38;97870.72;5103114;28;20570;-71
2022/08/26 09:22:44;;;;;;;5.40;4.90;;;;;;;26.43;57.31;97868.81;5109083;28;20496;-71
2022/08/26 09:25:14;;;;;;;5.40;4.80;;;;;;;26.68;56.05;97861.69;5112371;28;20303;-71
2022/08/26 09:27:44;;;;;;;4.70;4.30;;;;;;;26.82;55.81;97863.28;5111817;28;20214;-71
2022/08/26 09:30:15;;;;;;;5.13;4.57;;;;;;;27.00;55.55;97858.00;5108545;28;20283;-71
2022/08/26 09:32:44;;;;;;;5.60;4.87;;;;;;;27.29;54.41;97860.19;5109839;28;20269;-71
2022/08/26 09:35:26;;;;;;;5.37;4.87;;;;;;;27.55;53.19;97866.28;5110808;28;20218;-71
2022/08/26 09:37:53;;;;;;;6.97;4.65;;;;;;;27.76;51.68;97852.34;5108670;28;20222;-72
2022/08/26 09:40:25;;;;;;;5.93;4.87;;;;;;;27.76;50.88;97855.06;5108491;28;20227;-71
2022/08/26 09:43:14;;;;;;;5.55;4.70;;;;;;;27.84;51.52;97848.56;5096186;28;20646;-71
2022/08/26 09:45:44;;;;;;;5.18;4.40;;;;;;;28.03;51.88;97842.13;5107434;28;20233;-71
2022/08/26 09:48:23;;;;;;;5.30;4.80;;;;;;;28.22;50.07;97841.97;5108090;28;20233;-71
2022/08/26 09:50:54;;;;;;;6.75;4.90;;;;;;;28.36;49.72;97838.06;5097696;28;20532;-71
2022/08/26 09:53:24;;;;;;;5.90;4.70;;;;;;;28.49;49.58;97831.69;5110576;28;20314;-71
2022/08/26 09:55:53;;;;;;;8.18;5.05;;;;;;;28.50;49.00;97817.03;5107900;28;20262;-70
2022/08/26 09:58:33;;;;;;;5.90;5.10;;;;;;;28.52;49.75;97809.47;5110054;28;20242;-71
2022/08/26 10:01:01;;;;;;;5.65;5.00;;;;;;;28.60;50.37;97811.88;5110128;28;20226;-71
2022/08/26 10:03:34;;;;;;;6.38;4.82;;;;;;;28.78;50.00;97803.69;5107955;28;20226;-72
2022/08/26 10:06:04;;;;;;;7.80;5.28;;;;;;;28.95;49.66;97813.78;5108451;28;20528;-72
2022/08/26 10:08:33;;;;;;;9.45;5.68;;;;;;;29.10;49.41;97811.47;5111585;28;20283;-71
2022/08/26 10:11:03;;;;;;;8.10;5.55;;;;;;;29.08;48.11;97816.31;5110660;28;20226;-72
2022/08/26 10:13:34;;;;;;;7.90;6.20;;;;;;;29.18;48.25;97804.88;5107776;28;20272;-70
2022/08/26 10:16:09;;;;;;;13.13;6.32;;;;;;;29.11;48.53;97806.88;5109536;28;20640;-70
2022/08/26 10:18:41;;;;;;;10.38;5.93;;;;;;;29.15;49.40;97800.72;5111412;28;20245;-71
2022/08/26 10:21:12;;;;;;;8.48;5.85;;;;;;;29.14;48.68;97796.34;5108013;28;20223;-71
2022/08/26 10:23:42;;;;;;;7.47;5.80;;;;;;;29.21;48.75;97788.06;5107389;28;20269;-71
2022/08/26 10:26:13;;;;;;;9.05;6.00;;;;;;;29.36;49.27;97791.22;5093897;28;20305;-71
2022/08/26 10:28:45;;;;;;;9.88;6.53;;;;;;;29.53;48.79;97798.50;5110747;28;20221;-70
2022/08/26 10:31:35;;;;;;;11.05;6.50;;;;;;;29.44;47.84;97796.31;5107539;28;20253;-72
2022/08/26 10:34:03;;;;;;;11.32;6.20;;;;;;;29.36;47.89;97792.06;5092796;28;20222;-71
2022/08/26 10:36:50;;;;;;;8.77;6.65;;;;;;;29.39;48.25;97791.59;5110816;28;20328;-71
2022/08/26 10:39:23;;;;;;;9.38;5.75;;;;;;;29.58;47.44;97795.94;5107229;28;20250;-70
2022/08/26 10:41:55;;;;;;;10.63;6.40;;;;;;;29.57;47.18;97787.97;5094346;28;20222;-72
2022/08/26 10:44:23;;;;;;;7.97;5.95;;;;;;;29.67;46.80;97788.25;5110621;28;20230;-71
2022/08/26 10:46:55;;;;;;;9.82;5.65;;;;;;;29.82;46.58;97780.44;5106978;28;20233;-71
2022/08/26 10:49:23;;;;;;;8.90;6.55;;;;;;;29.93;46.48;97776.88;5108217;28;20250;-71
2022/08/26 10:51:58;;;;;;;10.73;6.18;;;;;;;29.85;46.38;97779.97;5108810;28;20675;-72
2022/08/26 10:54:41;;;;;;;9.43;6.10;;;;;;;29.60;46.99;97776.63;5108704;28;20699;-71
2022/08/26 10:57:14;;;;;;;10.80;6.82;;;;;;;29.53;47.50;97770.47;5106729;28;20581;-70
2022/08/26 10:59:53;;;;;;;12.80;6.53;;;;;;;29.49;47.78;97758.34;5110643;28;20277;-69
2022/08/26 11:02:24;;;;;;;11.75;6.15;;;;;;;29.72;46.56;97764.66;5108079;28;20278;-71
2022/08/26 11:04:56;;;;;;;8.85;6.45;;;;;;;30.11;46.13;97763.19;5106790;28;20222;-71
2022/08/26 11:07:52;;;;;;;10.20;6.30;;;;;;;30.52;43.91;97749.38;5093536;28;20279;-70
2022/08/26 11:11:04;;;;;;;7.05;6.30;;;;;;;30.71;43.21;97753.63;5061040;28;20231;-71
2022/08/26 11:13:59;;;;;;;9.98;5.88;;;;;;;30.96;45.49;97748.66;5097090;28;20261;-70
2022/08/26 11:16:38;;;;;;;9.73;6.00;;;;;;;30.90;44.58;97746.91;5099958;28;20227;-70
2022/08/26 11:19:06;;;;;;;8.05;6.13;;;;;;;30.87;45.75;97747.41;5106018;28;20248;-69
2022/08/26 11:22:03;;;;;;;10.18;6.10;;;;;;;30.84;44.91;97750.59;5102323;28;20309;-69
2022/08/26 11:25:10;;;;;;;8.55;6.05;;;;;;;31.08;45.03;97758.47;5100898;28;20258;-70
2022/08/26 11:28:04;;;;;;;10.57;6.53;;;;;;;31.19;44.25;97756.78;5101682;28;20261;-67
2022/08/26 11:30:50;;;;;;;9.23;6.30;;;;;;;31.02;44.06;97743.06;5099049;28;20229;-70
2022/08/26 11:33:46;;;;;;;7.70;6.25;;;;;;;31.25;44.90;97744.88;5097532;28;20308;-76
2022/08/26 11:36:33;;;;;;;9.57;6.10;;;;;;;31.54;43.63;97743.78;5089574;28;20440;-71
2022/08/26 11:39:02;;;;;;;10.50;6.47;;;;;;;31.63;44.14;97737.66;5092901;28;20238;-65
2022/08/26 11:41:30;;;;;;;11.00;6.40;;;;;;;31.76;44.02;97726.41;5103484;28;20226;-65
2022/08/26 11:43:58;;;;;;;9.65;6.45;;;;;;;31.73;44.53;97720.63;5099860;28;20233;-65